Time;durP1;ratioP1;P1;durP2;ratioP2;P2;SDS_P1;SDS_P2;PMS_P1;PMS_P2;Temp;Humidity;BMP_temperature;BMP_pressure;BME280_temperature;BME280_humidity;BME280_pressure;Samples;Min_cycle;Max_cycle;Signal;HPM_P1;HPM_P2
2023/03/23 00:01:05;;;;;;;10.18;4.72;;;11.60;99.90;;;;;;4995976;28;20260;-70
2023/03/23 00:03:31;;;;;;;5.45;4.00;;;11.60;99.90;;;;;;4996378;28;20184;-69
2023/03/23 00:06:05;;;;;;;9.55;3.97;;;11.60;99.90;;;;;;4997449;28;20184;-70
2023/03/23 00:08:33;;;;;;;9.25;4.43;;;11.60;99.90;;;;;;5000330;28;20207;-69
2023/03/23 00:11:00;;;;;;;4.40;4.00;;;11.50;99.90;;;;;;5000966;28;20172;-69
2023/03/23 00:13:28;;;;;;;6.28;3.83;;;11.50;99.90;;;;;;5000697;28;20173;-69
2023/03/23 00:15:53;;;;;;;6.70;4.43;;;11.40;99.90;;;;;;4996614;28;20188;-69
2023/03/23 00:18:23;;;;;;;4.90;4.18;;;11.40;99.90;;;;;;4995991;28;20219;-69
2023/03/23 00:20:54;;;;;;;6.50;4.40;;;11.40;99.90;;;;;;4996304;28;20184;-69
2023/03/23 00:23:25;;;;;;;9.65;4.28;;;11.30;99.90;;;;;;4995498;28;20212;-70
2023/03/23 00:25:58;;;;;;;5.53;4.20;;;11.30;99.90;;;;;;4995415;28;20618;-70
2023/03/23 00:28:26;;;;;;;6.22;4.07;;;11.30;99.90;;;;;;4995836;28;20207;-70
2023/03/23 00:31:03;;;;;;;7.63;4.63;;;11.30;99.90;;;;;;4995765;28;20303;-69
2023/03/23 00:33:37;;;;;;;4.80;4.35;;;11.20;99.90;;;;;;4993973;28;20603;-69
2023/03/23 00:36:04;;;;;;;6.80;3.92;;;11.20;99.90;;;;;;4995777;28;20529;-64
2023/03/23 00:38:31;;;;;;;6.95;4.32;;;11.20;99.90;;;;;;4994085;28;20208;-68
2023/03/23 00:40:57;;;;;;;5.97;4.30;;;11.20;99.90;;;;;;4995918;28;20184;-68
2023/03/23 00:43:28;;;;;;;7.47;4.47;;;11.20;99.90;;;;;;4994694;28;20299;-69
2023/03/23 00:46:00;;;;;;;5.03;4.50;;;11.20;99.90;;;;;;4995419;28;20153;-68
2023/03/23 00:48:28;;;;;;;5.00;4.50;;;11.30;99.90;;;;;;4995324;28;20654;-68
2023/03/23 00:50:55;;;;;;;5.03;4.05;;;11.30;99.90;;;;;;4995120;28;20187;-68
2023/03/23 00:53:22;;;;;;;6.85;4.38;;;11.30;99.90;;;;;;4995157;28;20201;-68
2023/03/23 00:55:49;;;;;;;6.97;4.60;;;11.30;99.90;;;;;;4995396;28;20208;-69
2023/03/23 00:58:15;;;;;;;4.88;4.38;;;11.30;99.90;;;;;;4995434;28;20200;-68
2023/03/23 01:00:41;;;;;;;6.65;4.53;;;11.20;99.90;;;;;;4993677;28;20281;-68
2023/03/23 01:03:11;;;;;;;6.60;4.25;;;11.20;99.90;;;;;;4993553;28;20296;-68
2023/03/23 01:05:38;;;;;;;5.32;4.30;;;11.30;99.90;;;;;;4995329;28;20618;-68
2023/03/23 01:08:05;;;;;;;8.35;4.43;;;11.30;99.90;;;;;;4995178;28;20692;-68
2023/03/23 01:10:32;;;;;;;6.13;4.20;;;11.30;99.90;;;;;;4995382;28;20283;-68
2023/03/23 01:13:02;;;;;;;5.78;4.38;;;11.30;99.90;;;;;;4994835;28;20234;-68
2023/03/23 01:15:29;;;;;;;5.38;4.00;;;11.30;99.90;;;;;;4993702;28;20528;-68
2023/03/23 01:17:55;;;;;;;5.55;3.90;;;11.40;99.90;;;;;;4994329;28;20208;-68
2023/03/23 01:20:22;;;;;;;5.88;4.30;;;11.40;99.90;;;;;;4994441;28;20181;-68
2023/03/23 01:22:47;;;;;;;6.47;4.22;;;11.50;99.90;;;;;;4994489;28;20200;-68
2023/03/23 01:25:14;;;;;;;5.88;4.07;;;11.50;99.90;;;;;;4993040;28;20180;-68
2023/03/23 01:27:40;;;;;;;5.30;3.92;;;11.60;99.90;;;;;;4993011;28;20692;-68
2023/03/23 01:30:08;;;;;;;4.50;4.07;;;11.60;99.90;;;;;;4994879;28;20180;-68
2023/03/23 01:32:34;;;;;;;4.82;3.90;;;11.60;99.90;;;;;;4994465;28;20192;-68
2023/03/23 01:35:00;;;;;;;5.88;4.38;;;11.60;99.90;;;;;;4994301;28;20644;-68
2023/03/23 01:37:26;;;;;;;5.28;4.43;;;11.60;99.90;;;;;;4993342;28;20204;-68
2023/03/23 01:39:58;;;;;;;4.32;3.83;;;11.60;99.90;;;;;;4993236;28;20571;-68
2023/03/23 01:42:33;;;;;;;4.20;3.80;;;11.60;99.90;;;;;;4993091;28;20208;-68
2023/03/23 01:45:34;;;;;;;5.80;3.97;;;11.60;99.90;;;;;;4993188;28;20172;-68
2023/03/23 01:48:21;;;;;;;6.80;3.83;;;11.60;99.90;;;;;;4993052;28;20223;-68
2023/03/23 01:50:53;;;;;;;4.70;3.92;;;11.50;99.90;;;;;;4993218;28;20223;-68
2023/03/23 01:53:20;;;;;;;4.15;3.55;;;11.40;99.90;;;;;;4992977;28;20192;-68
2023/03/23 01:55:50;;;;;;;7.13;4.30;;;11.40;99.90;;;;;;4993268;28;20184;-68
2023/03/23 01:58:20;;;;;;;5.32;4.18;;;11.30;99.90;;;;;;4994033;28;20703;-68
2023/03/23 02:00:47;;;;;;;4.78;4.00;;;11.10;99.90;;;;;;4992954;28;20641;-68
2023/03/23 02:03:15;;;;;;;6.47;4.75;;;11.00;99.90;;;;;;4992668;28;20204;-68
2023/03/23 02:05:42;;;;;;;4.30;3.90;;;10.90;99.90;;;;;;4994884;28;20203;-68
2023/03/23 02:08:10;;;;;;;7.78;4.68;;;10.80;99.90;;;;;;4994243;28;20192;-68
2023/03/23 02:10:37;;;;;;;4.88;3.70;;;10.80;99.90;;;;;;4992848;28;20228;-68
2023/03/23 02:13:06;;;;;;;5.00;4.45;;;10.70;99.90;;;;;;4992999;28;20199;-68
2023/03/23 02:15:37;;;;;;;5.40;4.03;;;10.70;99.90;;;;;;4994347;28;20729;-68
2023/03/23 02:18:12;;;;;;;6.82;4.88;;;10.70;99.90;;;;;;4992948;28;20583;-68
2023/03/23 02:21:11;;;;;;;5.15;4.60;;;10.60;99.90;;;;;;4994549;28;20160;-68
2023/03/23 02:23:54;;;;;;;6.70;4.30;;;10.60;99.90;;;;;;4994489;28;20529;-68
2023/03/23 02:26:29;;;;;;;6.28;4.75;;;10.60;99.90;;;;;;4992724;28;20173;-68
2023/03/23 02:28:55;;;;;;;4.73;4.33;;;10.50;99.90;;;;;;4994104;28;20227;-68
2023/03/23 02:31:58;;;;;;;6.05;4.97;;;10.40;99.90;;;;;;4992726;28;20188;-68
2023/03/23 02:34:29;;;;;;;4.97;4.47;;;10.40;99.90;;;;;;4992734;28;20188;-68
2023/03/23 02:37:16;;;;;;;10.85;5.60;;;10.40;99.90;;;;;;4993956;28;20727;-68
2023/03/23 02:39:51;;;;;;;7.93;4.57;;;10.40;99.90;;;;;;4994416;28;20536;-68
2023/03/23 02:42:28;;;;;;;6.47;4.55;;;10.50;99.90;;;;;;4992989;28;20246;-68
2023/03/23 02:44:56;;;;;;;4.90;4.50;;;10.40;99.90;;;;;;4993164;28;20168;-68
2023/03/23 02:47:25;;;;;;;6.10;4.63;;;10.40;99.90;;;;;;4994492;28;20199;-68
2023/03/23 02:49:54;;;;;;;5.80;4.35;;;10.40;99.90;;;;;;4992567;28;20597;-68
2023/03/23 02:52:32;;;;;;;4.80;4.30;;;10.40;99.90;;;;;;4993780;28;20195;-68
2023/03/23 02:54:59;;;;;;;5.30;4.43;;;10.50;99.90;;;;;;4993904;28;20215;-68
2023/03/23 02:57:27;;;;;;;6.53;4.35;;;10.40;99.90;;;;;;4992485;28;20196;-68
2023/03/23 02:59:53;;;;;;;5.23;4.73;;;10.40;99.90;;;;;;4992452;28;20184;-68
2023/03/23 03:02:32;;;;;;;4.77;4.10;;;10.40;99.90;;;;;;4992485;28;20634;-68
2023/03/23 03:05:13;;;;;;;4.85;4.13;;;10.50;99.90;;;;;;4992375;28;20199;-68
2023/03/23 03:07:48;;;;;;;4.40;4.00;;;10.40;99.90;;;;;;4995810;28;20196;-68
2023/03/23 03:10:27;;;;;;;4.70;4.18;;;10.50;99.90;;;;;;4995802;28;20588;-68
2023/03/23 03:12:56;;;;;;;4.55;4.15;;;10.60;99.90;;;;;;4997767;28;20546;-68
2023/03/23 03:15:40;;;;;;;5.03;4.10;;;10.60;99.90;;;;;;4995730;28;20180;-68
2023/03/23 03:18:11;;;;;;;4.45;4.05;;;10.50;99.90;;;;;;4996780;28;20212;-68
2023/03/23 03:20:43;;;;;;;4.55;4.15;;;10.50;99.90;;;;;;4996804;28;20272;-68
2023/03/23 03:23:12;;;;;;;4.70;4.13;;;10.50;99.90;;;;;;4996988;28;20204;-68
2023/03/23 03:25:41;;;;;;;4.60;4.05;;;10.50;99.90;;;;;;4995457;28;20202;-68
2023/03/23 03:28:07;;;;;;;7.95;4.55;;;10.50;99.90;;;;;;4995352;28;20192;-68
2023/03/23 03:30:35;;;;;;;5.15;4.10;;;10.50;99.90;;;;;;4995360;28;20551;-68
2023/03/23 03:33:03;;;;;;;6.35;4.07;;;10.50;99.90;;;;;;4996568;28;20180;-68
2023/03/23 03:35:30;;;;;;;6.22;4.50;;;10.60;99.90;;;;;;4995102;28;20180;-68
2023/03/23 03:37:57;;;;;;;5.03;4.53;;;10.60;99.90;;;;;;4996457;28;20203;-68
2023/03/23 03:40:23;;;;;;;5.70;4.25;;;10.50;99.90;;;;;;4995114;28;20176;-68
2023/03/23 03:42:49;;;;;;;6.60;4.35;;;10.60;99.90;;;;;;4996340;28;20197;-68
2023/03/23 03:45:20;;;;;;;5.07;4.28;;;10.60;99.90;;;;;;4996261;28;20226;-68
2023/03/23 03:47:46;;;;;;;7.03;4.40;;;10.60;99.90;;;;;;4996373;28;20196;-68
2023/03/23 03:50:12;;;;;;;6.40;4.15;;;10.60;99.90;;;;;;4996109;28;20235;-67
2023/03/23 03:52:39;;;;;;;5.88;4.00;;;10.70;99.90;;;;;;4995016;28;20723;-67
2023/03/23 03:55:07;;;;;;;4.20;3.80;;;10.70;99.90;;;;;;4996167;28;20173;-68
2023/03/23 03:57:33;;;;;;;4.28;3.72;;;10.70;99.90;;;;;;4996341;28;20604;-68
2023/03/23 03:59:59;;;;;;;5.10;3.90;;;10.70;99.90;;;;;;4994668;28;20184;-67
2023/03/23 04:02:25;;;;;;;4.22;3.92;;;10.70;99.90;;;;;;4994563;28;20258;-68
2023/03/23 04:04:52;;;;;;;5.38;3.92;;;10.70;99.90;;;;;;5001401;28;20367;-68
2023/03/23 04:07:18;;;;;;;5.10;3.78;;;10.70;99.90;;;;;;4996237;28;20188;-68
2023/03/23 04:09:49;;;;;;;4.53;3.97;;;10.70;99.90;;;;;;4996043;28;20196;-68
2023/03/23 04:12:15;;;;;;;3.90;3.58;;;10.80;99.90;;;;;;4995880;28;20168;-68
2023/03/23 04:14:41;;;;;;;5.18;4.15;;;10.80;99.90;;;;;;4995944;28;20267;-68
2023/03/23 04:17:08;;;;;;;4.67;3.93;;;10.90;99.90;;;;;;4995112;28;20232;-68
2023/03/23 04:19:36;;;;;;;3.90;3.60;;;10.90;99.90;;;;;;4995866;28;20677;-68
2023/03/23 04:22:03;;;;;;;3.75;3.45;;;10.90;99.90;;;;;;4997568;28;20233;-67
2023/03/23 04:24:32;;;;;;;4.10;3.50;;;10.90;99.90;;;;;;5015571;28;20176;-67
2023/03/23 04:26:59;;;;;;;4.13;3.83;;;10.90;99.90;;;;;;5015416;28;20195;-67
2023/03/23 04:29:25;;;;;;;4.47;3.72;;;11.00;99.90;;;;;;5017332;28;20524;-65
2023/03/23 04:31:52;;;;;;;3.97;3.65;;;11.00;99.90;;;;;;5015272;28;20259;-65
2023/03/23 04:34:18;;;;;;;3.97;3.58;;;11.00;99.90;;;;;;5013635;28;20208;-65
2023/03/23 04:36:46;;;;;;;4.63;3.83;;;11.00;99.90;;;;;;5014909;28;20559;-65
2023/03/23 04:39:13;;;;;;;4.22;3.85;;;11.00;99.90;;;;;;5014830;28;20258;-64
2023/03/23 04:41:39;;;;;;;4.82;3.42;;;11.10;99.90;;;;;;5014763;28;20564;-65
2023/03/23 04:44:06;;;;;;;3.78;3.47;;;11.10;99.90;;;;;;5014777;28;20222;-65
2023/03/23 04:46:33;;;;;;;5.53;3.70;;;11.10;99.90;;;;;;5013552;28;20190;-65
2023/03/23 04:49:02;;;;;;;6.20;3.60;;;11.00;99.90;;;;;;5014588;28;20226;-65
2023/03/23 04:51:29;;;;;;;4.20;3.80;;;11.10;99.90;;;;;;5013224;28;20187;-65
2023/03/23 04:53:56;;;;;;;5.53;3.58;;;11.10;99.90;;;;;;4996183;28;20267;-65
2023/03/23 04:56:22;;;;;;;4.57;4.18;;;11.10;99.90;;;;;;4993744;28;20181;-65
2023/03/23 04:58:49;;;;;;;4.15;3.65;;;11.10;99.90;;;;;;4995303;28;20165;-65
2023/03/23 05:01:17;;;;;;;4.18;3.78;;;11.20;99.90;;;;;;4994823;28;20168;-65
2023/03/23 05:03:43;;;;;;;3.90;3.60;;;11.10;99.90;;;;;;4997515;28;20175;-65
2023/03/23 05:06:10;;;;;;;5.03;3.55;;;11.10;99.90;;;;;;5003825;28;20692;-65
2023/03/23 05:08:40;;;;;;;4.82;3.55;;;11.10;99.90;;;;;;4997171;28;20279;-65
2023/03/23 05:11:06;;;;;;;4.05;3.67;;;11.10;99.90;;;;;;4995148;28;20156;-66
2023/03/23 05:13:32;;;;;;;3.90;3.60;;;11.10;99.90;;;;;;4993418;28;20188;-65
2023/03/23 05:16:02;;;;;;;5.40;4.03;;;11.10;99.90;;;;;;4993331;28;20215;-66
2023/03/23 05:18:28;;;;;;;6.70;3.80;;;11.10;99.90;;;;;;4994432;28;20218;-65
2023/03/23 05:20:54;;;;;;;5.30;3.65;;;11.20;99.90;;;;;;4994976;28;20228;-65
2023/03/23 05:23:26;;;;;;;4.15;3.60;;;11.20;99.90;;;;;;4994600;28;20696;-65
2023/03/23 05:25:56;;;;;;;3.92;3.63;;;11.20;99.90;;;;;;4995100;28;20558;-65
2023/03/23 05:28:22;;;;;;;4.13;3.72;;;11.20;99.90;;;;;;4994350;28;20266;-65
2023/03/23 05:30:48;;;;;;;4.65;3.60;;;11.20;99.90;;;;;;4994774;28;20651;-66
2023/03/23 05:33:14;;;;;;;4.40;4.00;;;11.20;99.90;;;;;;4995100;28;20672;-65
2023/03/23 05:35:40;;;;;;;4.05;3.65;;;11.20;99.90;;;;;;4994695;28;20235;-65
2023/03/23 05:38:06;;;;;;;3.70;3.40;;;11.20;99.90;;;;;;4994707;28;20196;-65
2023/03/23 05:40:32;;;;;;;5.22;4.00;;;11.20;99.90;;;;;;4993658;28;20188;-65
2023/03/23 05:42:58;;;;;;;4.30;3.58;;;11.20;99.90;;;;;;4996476;28;20697;-67
2023/03/23 05:45:26;;;;;;;4.95;4.15;;;11.30;99.90;;;;;;4993586;28;20255;-67
2023/03/23 05:47:52;;;;;;;3.65;3.35;;;11.30;99.90;;;;;;4992898;28;20204;-68
2023/03/23 05:50:18;;;;;;;4.95;4.00;;;11.30;99.90;;;;;;4994425;28;20184;-67
2023/03/23 05:52:44;;;;;;;3.92;3.55;;;11.30;99.90;;;;;;4994399;28;20177;-68
2023/03/23 05:55:11;;;;;;;4.32;3.78;;;11.30;99.90;;;;;;4992935;28;20242;-68
2023/03/23 05:57:37;;;;;;;4.68;4.10;;;11.30;99.90;;;;;;4992870;28;20323;-66
2023/03/23 06:00:13;;;;;;;4.13;3.72;;;11.30;99.90;;;;;;4994353;28;20633;-66
2023/03/23 06:02:43;;;;;;;5.82;4.53;;;11.40;99.90;;;;;;4992889;28;20204;-66
2023/03/23 06:05:10;;;;;;;4.03;3.63;;;11.40;99.90;;;;;;4992618;28;20176;-66
2023/03/23 06:07:37;;;;;;;4.22;3.78;;;11.40;99.90;;;;;;4992880;28;20283;-66
2023/03/23 06:10:06;;;;;;;5.82;4.18;;;11.40;99.90;;;;;;4994072;28;20168;-66
2023/03/23 06:12:32;;;;;;;4.03;3.72;;;11.40;99.90;;;;;;4994681;28;20188;-66
2023/03/23 06:14:58;;;;;;;7.60;3.92;;;11.40;99.90;;;;;;4994460;28;20172;-66
2023/03/23 06:17:25;;;;;;;5.68;3.70;;;11.30;99.90;;;;;;4993222;28;20634;-66
2023/03/23 06:19:50;;;;;;;5.40;4.00;;;11.40;99.90;;;;;;4994557;28;20176;-66
2023/03/23 06:22:17;;;;;;;4.25;3.63;;;11.40;99.90;;;;;;4994314;28;20691;-66
2023/03/23 06:24:44;;;;;;;4.63;3.92;;;11.40;99.90;;;;;;4993084;28;20177;-66
2023/03/23 06:27:10;;;;;;;5.22;3.85;;;11.40;99.90;;;;;;4992949;28;20203;-66
2023/03/23 06:29:37;;;;;;;4.43;3.80;;;11.40;99.90;;;;;;4992790;28;20376;-66
2023/03/23 06:32:04;;;;;;;6.63;4.20;;;11.40;99.90;;;;;;4992699;28;20180;-66
2023/03/23 06:34:32;;;;;;;4.70;4.10;;;11.50;99.90;;;;;;4993648;28;20208;-66
2023/03/23 06:36:58;;;;;;;4.25;3.80;;;11.50;99.90;;;;;;4993855;28;20212;-66
2023/03/23 06:39:24;;;;;;;4.97;3.63;;;11.50;99.90;;;;;;4994009;28;20191;-67
2023/03/23 06:41:50;;;;;;;4.00;3.70;;;11.60;99.90;;;;;;4996202;28;20212;-67
2023/03/23 06:44:16;;;;;;;4.65;4.25;;;11.60;99.90;;;;;;4997512;28;20173;-67
2023/03/23 06:46:42;;;;;;;4.53;4.03;;;11.60;99.90;;;;;;4996039;28;20208;-67
2023/03/23 06:49:08;;;;;;;4.13;3.67;;;11.60;99.90;;;;;;4995953;28;20173;-67
2023/03/23 06:51:35;;;;;;;4.70;3.90;;;11.60;99.90;;;;;;4997999;28;20176;-67
2023/03/23 06:54:01;;;;;;;8.27;4.47;;;11.60;99.90;;;;;;4997427;28;20247;-67
2023/03/23 06:56:26;;;;;;;4.60;4.20;;;11.70;99.90;;;;;;4995756;28;20649;-67
2023/03/23 06:58:53;;;;;;;6.60;4.05;;;11.70;99.90;;;;;;4997093;28;20176;-67
2023/03/23 07:01:19;;;;;;;4.07;3.65;;;11.70;99.90;;;;;;4995673;28;20223;-67
2023/03/23 07:03:45;;;;;;;4.15;3.80;;;11.80;99.90;;;;;;4996928;28;20214;-67
2023/03/23 07:06:12;;;;;;;5.32;3.95;;;11.80;99.90;;;;;;4995645;28;20191;-67
2023/03/23 07:08:37;;;;;;;5.13;4.00;;;11.90;99.90;;;;;;4995534;28;20204;-67
2023/03/23 07:11:04;;;;;;;7.22;4.05;;;11.90;99.90;;;;;;4995697;28;20671;-67
2023/03/23 07:13:29;;;;;;;5.53;3.88;;;12.00;99.90;;;;;;4995718;28;20185;-67
2023/03/23 07:15:55;;;;;;;5.95;3.70;;;12.00;99.90;;;;;;4996884;28;20173;-67
2023/03/23 07:18:21;;;;;;;5.85;4.25;;;12.00;99.90;;;;;;4996519;28;20216;-67
2023/03/23 07:20:49;;;;;;;4.80;4.22;;;12.00;99.90;;;;;;4996530;28;20180;-66
2023/03/23 07:23:15;;;;;;;4.20;3.70;;;12.00;99.90;;;;;;4995268;28;20212;-67
2023/03/23 07:25:41;;;;;;;4.78;4.15;;;12.00;99.90;;;;;;4996619;28;20173;-66
2023/03/23 07:28:06;;;;;;;7.70;4.53;;;12.00;99.90;;;;;;4996330;28;20272;-67
2023/03/23 07:30:32;;;;;;;6.63;3.72;;;12.00;99.90;;;;;;4996576;28;20173;-67
2023/03/23 07:32:58;;;;;;;4.60;3.72;;;12.00;99.90;;;;;;4995304;28;20182;-67
2023/03/23 07:35:24;;;;;;;7.32;4.38;;;12.00;99.90;;;;;;4995112;28;20208;-66
2023/03/23 07:37:51;;;;;;;5.47;3.88;;;12.00;99.90;;;;;;4996588;28;20625;-68
2023/03/23 07:40:18;;;;;;;5.30;4.20;;;12.10;99.90;;;;;;4996434;28;20169;-66
2023/03/23 07:42:49;;;;;;;5.28;3.78;;;12.10;99.90;;;;;;4994924;28;20680;-64
2023/03/23 07:45:15;;;;;;;6.15;3.85;;;12.10;99.90;;;;;;4996692;28;20160;-63
2023/03/23 07:47:41;;;;;;;7.07;3.95;;;12.20;99.90;;;;;;4995003;28;20196;-64
2023/03/23 07:50:08;;;;;;;6.90;4.28;;;12.20;99.90;;;;;;4994809;28;20181;-63
2023/03/23 07:52:35;;;;;;;5.10;3.97;;;12.20;99.90;;;;;;4995734;28;20192;-64
2023/03/23 07:55:02;;;;;;;6.90;3.78;;;12.30;99.90;;;;;;4995860;28;20184;-64
2023/03/23 07:57:29;;;;;;;4.82;3.85;;;12.30;99.90;;;;;;4995874;28;20227;-64
2023/03/23 07:59:56;;;;;;;6.72;4.00;;;12.30;99.90;;;;;;4996209;28;20177;-63
2023/03/23 08:02:23;;;;;;;5.10;4.07;;;12.30;99.90;;;;;;4995900;28;20207;-63
2023/03/23 08:04:50;;;;;;;4.70;3.80;;;12.40;99.90;;;;;;4994420;28;20184;-63
2023/03/23 08:07:18;;;;;;;5.68;4.15;;;12.40;99.90;;;;;;4994352;28;20283;-63
2023/03/23 08:09:44;;;;;;;6.80;3.83;;;12.40;99.90;;;;;;4995689;28;20197;-63
2023/03/23 08:12:11;;;;;;;5.95;3.67;;;12.40;99.90;;;;;;4995902;28;20200;-63
2023/03/23 08:14:37;;;;;;;11.13;3.88;;;12.40;99.90;;;;;;4994312;28;20676;-64
2023/03/23 08:17:02;;;;;;;6.70;3.50;;;12.40;99.90;;;;;;4995465;28;20299;-64
2023/03/23 08:19:28;;;;;;;4.70;3.90;;;12.40;99.90;;;;;;4994273;28;20180;-64
2023/03/23 08:21:54;;;;;;;7.35;3.67;;;12.40;99.90;;;;;;4995925;28;20209;-63
2023/03/23 08:24:20;;;;;;;9.95;3.97;;;12.40;99.90;;;;;;4995518;28;20698;-63
2023/03/23 08:26:45;;;;;;;5.50;3.55;;;12.40;99.90;;;;;;4994117;28;20247;-64
2023/03/23 08:29:12;;;;;;;7.22;3.92;;;12.40;99.90;;;;;;4995385;28;20185;-62
2023/03/23 08:31:39;;;;;;;5.60;3.80;;;12.40;99.90;;;;;;4995646;28;20526;-63
2023/03/23 08:34:05;;;;;;;6.45;3.58;;;12.50;99.90;;;;;;4995463;28;20217;-63
2023/03/23 08:36:37;;;;;;;4.68;3.35;;;12.50;99.90;;;;;;4993988;28;20177;-64
2023/03/23 08:39:05;;;;;;;5.32;3.53;;;12.50;99.90;;;;;;4995451;28;20533;-63
2023/03/23 08:41:32;;;;;;;9.32;4.05;;;12.50;99.90;;;;;;4995070;28;20168;-63
2023/03/23 08:43:57;;;;;;;4.03;3.50;;;12.50;99.90;;;;;;4993916;28;20654;-64
2023/03/23 08:46:23;;;;;;;4.15;3.45;;;12.60;99.90;;;;;;4995287;28;20177;-63
2023/03/23 08:48:49;;;;;;;4.32;3.25;;;12.60;99.90;;;;;;4994887;28;20169;-63
2023/03/23 08:51:15;;;;;;;5.38;3.50;;;12.60;99.90;;;;;;4995454;28;20195;-63
2023/03/23 08:53:42;;;;;;;5.95;3.60;;;12.70;99.90;;;;;;4994795;28;20279;-63
2023/03/23 08:56:10;;;;;;;4.32;3.60;;;12.80;99.90;;;;;;4995197;28;20227;-64
2023/03/23 08:58:38;;;;;;;6.38;3.65;;;12.80;99.90;;;;;;4994855;28;20200;-63
2023/03/23 09:01:06;;;;;;;3.90;3.38;;;12.80;99.90;;;;;;4993430;28;20250;-64
2023/03/23 09:03:33;;;;;;;4.05;3.15;;;12.90;99.90;;;;;;4992941;28;20210;-63
2023/03/23 09:06:01;;;;;;;4.32;3.50;;;12.90;99.90;;;;;;4994529;28;20169;-64
2023/03/23 09:08:28;;;;;;;3.75;3.33;;;12.90;99.90;;;;;;4993350;28;20227;-64
2023/03/23 09:11:06;;;;;;;6.13;3.58;;;12.90;99.90;;;;;;4994939;28;20160;-63
2023/03/23 09:13:33;;;;;;;7.63;3.53;;;13.00;99.90;;;;;;4994929;28;20164;-63
2023/03/23 09:15:59;;;;;;;6.68;3.63;;;13.00;99.90;;;;;;4993306;28;20237;-63
2023/03/23 09:18:25;;;;;;;4.38;3.33;;;13.10;99.90;;;;;;4994467;28;20216;-63
2023/03/23 09:20:52;;;;;;;4.10;3.00;;;13.10;99.90;;;;;;4993096;28;20189;-63
2023/03/23 09:23:18;;;;;;;3.65;3.20;;;13.10;99.90;;;;;;4994448;28;20239;-63
2023/03/23 09:25:44;;;;;;;4.18;3.60;;;13.20;99.90;;;;;;4994458;28;20186;-63
2023/03/23 09:28:10;;;;;;;5.63;3.75;;;13.10;99.90;;;;;;4994300;28;20396;-63
2023/03/23 09:30:38;;;;;;;6.30;3.85;;;13.10;99.90;;;;;;4994357;28;20177;-64
2023/03/23 09:33:05;;;;;;;7.28;3.83;;;13.00;99.90;;;;;;4994378;28;20187;-63
2023/03/23 09:35:34;;;;;;;5.97;3.83;;;13.00;99.90;;;;;;4994391;28;20203;-64
2023/03/23 09:38:00;;;;;;;4.93;4.10;;;13.00;99.90;;;;;;4992827;28;20197;-63
2023/03/23 09:41:01;;;;;;;4.40;3.80;;;12.90;99.90;;;;;;4994298;28;20184;-63
2023/03/23 09:43:39;;;;;;;8.70;3.63;;;12.80;99.90;;;;;;4994451;28;20203;-63
2023/03/23 09:46:35;;;;;;;9.45;3.78;;;12.80;99.90;;;;;;4994161;28;20208;-63
2023/03/23 09:49:24;;;;;;;9.18;4.00;;;12.90;99.90;;;;;;4994100;28;20711;-64
2023/03/23 09:51:56;;;;;;;4.78;3.53;;;12.90;99.90;;;;;;4994203;28;20622;-64
2023/03/23 09:54:34;;;;;;;4.78;3.25;;;12.90;99.90;;;;;;4994536;28;20244;-64
2023/03/23 09:57:01;;;;;;;5.65;3.80;;;12.90;99.90;;;;;;4994629;28;20254;-63
2023/03/23 09:59:31;;;;;;;6.72;3.90;;;13.00;99.90;;;;;;4994513;28;20180;-64
2023/03/23 10:02:19;;;;;;;4.07;2.95;;;13.10;99.90;;;;;;4992836;28;20234;-64
2023/03/23 10:04:52;;;;;;;6.32;3.90;;;13.10;99.90;;;;;;4994003;28;20226;-64
2023/03/23 10:07:26;;;;;;;8.20;3.60;;;13.10;99.90;;;;;;4993945;28;20189;-63
2023/03/23 10:09:58;;;;;;;7.40;3.63;;;13.10;99.90;;;;;;4994643;28;20156;-63
2023/03/23 10:12:41;;;;;;;10.35;3.67;;;13.10;99.90;;;;;;4993988;28;20185;-63
2023/03/23 10:15:30;;;;;;;4.90;3.80;;;13.10;99.90;;;;;;4995379;28;20635;-63
2023/03/23 10:18:10;;;;;;;8.45;3.65;;;13.30;99.90;;;;;;4997825;28;20636;-63
2023/03/23 10:20:53;;;;;;;6.50;4.03;;;13.40;99.90;;;;;;4996415;28;20538;-63
2023/03/23 10:23:18;;;;;;;6.53;3.85;;;13.50;99.90;;;;;;4996605;28;20208;-63
2023/03/23 10:26:05;;;;;;;6.72;3.72;;;13.40;99.90;;;;;;4996466;28;20172;-63
2023/03/23 10:28:44;;;;;;;5.13;3.60;;;13.50;99.90;;;;;;4997607;28;20224;-63
2023/03/23 10:31:31;;;;;;;8.50;3.63;;;13.50;99.90;;;;;;4998228;28;20248;-63
2023/03/23 10:34:02;;;;;;;9.90;4.05;;;13.50;99.90;;;;;;4997841;28;20618;-67
2023/03/23 10:36:51;;;;;;;9.25;4.30;;;13.50;99.90;;;;;;4997999;28;20161;-63
2023/03/23 10:39:22;;;;;;;10.23;4.68;;;13.60;99.90;;;;;;4997716;28;20149;-63
2023/03/23 10:41:48;;;;;;;8.48;4.00;;;13.60;99.90;;;;;;4997654;28;20204;-62
2023/03/23 10:44:17;;;;;;;9.10;3.67;;;13.60;99.90;;;;;;4998000;28;20186;-62
2023/03/23 10:46:57;;;;;;;9.43;4.88;;;13.60;99.90;;;;;;4995929;28;20661;-63
2023/03/23 10:49:27;;;;;;;7.35;3.83;;;13.50;99.90;;;;;;4997361;28;20165;-62
2023/03/23 10:52:11;;;;;;;8.77;3.63;;;13.40;99.90;;;;;;4995999;28;20555;-63
2023/03/23 10:54:47;;;;;;;11.18;3.85;;;13.30;99.90;;;;;;4997139;28;20169;-63
2023/03/23 10:57:40;;;;;;;9.38;4.63;;;13.20;99.90;;;;;;4997213;28;20192;-63
2023/03/23 11:00:16;;;;;;;6.88;4.03;;;13.00;99.90;;;;;;4995834;28;20238;-62
2023/03/23 11:03:03;;;;;;;9.60;4.40;;;12.60;99.90;;;;;;4995689;28;20204;-63
2023/03/23 11:05:41;;;;;;;6.28;4.55;;;12.30;99.90;;;;;;4994961;28;20181;-62
2023/03/23 11:08:16;;;;;;;7.68;3.85;;;12.10;99.90;;;;;;4997234;28;20199;-66
2023/03/23 11:10:50;;;;;;;6.85;4.63;;;12.00;99.90;;;;;;4997040;28;20637;-66
2023/03/23 11:13:19;;;;;;;4.57;3.33;;;12.00;99.90;;;;;;4997330;28;20618;-66
2023/03/23 11:15:47;;;;;;;3.28;3.08;;;11.80;99.90;;;;;;4997370;28;20179;-65
2023/03/23 11:18:35;;;;;;;3.40;2.90;;;11.60;99.90;;;;;;4996968;28;20681;-66
2023/03/23 11:21:03;;;;;;;4.63;3.40;;;11.40;99.90;;;;;;4997073;28;20209;-67
2023/03/23 11:23:33;;;;;;;6.32;3.22;;;11.20;99.90;;;;;;4996734;28;20791;-67
2023/03/23 11:26:09;;;;;;;9.02;5.88;;;11.10;99.90;;;;;;4996563;28;20252;-66
2023/03/23 11:28:52;;;;;;;7.22;4.22;;;11.00;99.90;;;;;;4996527;28;20200;-65
2023/03/23 11:31:22;;;;;;;5.88;4.43;;;10.80;99.90;;;;;;4995441;28;20669;-66
2023/03/23 11:33:57;;;;;;;7.28;5.70;;;10.80;99.90;;;;;;4995607;28;20184;-65
2023/03/23 11:36:37;;;;;;;6.90;6.03;;;10.60;99.90;;;;;;4996395;28;20251;-66
2023/03/23 11:39:22;;;;;;;8.87;6.90;;;10.60;99.90;;;;;;4996519;28;20176;-65
2023/03/23 11:41:48;;;;;;;9.00;7.60;;;10.50;99.90;;;;;;4996610;28;20195;-65
2023/03/23 11:44:15;;;;;;;8.82;7.03;;;10.30;99.90;;;;;;4996610;28;20613;-66
2023/03/23 11:47:31;;;;;;;9.77;7.50;;;10.40;99.90;;;;;;4996196;28;20220;-66
2023/03/23 11:50:05;;;;;;;11.20;8.15;;;10.40;99.90;;;;;;4955668;29;20174;-66
2023/03/23 11:52:58;;;;;;;10.85;8.07;;;10.40;99.90;;;;;;4955452;29;20189;-66
2023/03/23 11:55:30;;;;;;;10.40;7.57;;;10.20;99.90;;;;;;4972330;28;20193;-66
2023/03/23 11:58:00;;;;;;;13.70;9.00;;;10.20;99.90;;;;;;4975290;28;20226;-66
2023/03/23 12:00:26;;;;;;;9.53;7.87;;;10.10;99.90;;;;;;4976951;28;20214;-66
2023/03/23 12:03:04;;;;;;;11.00;8.63;;;10.00;99.90;;;;;;4976852;28;20716;-66
2023/03/23 12:05:59;;;;;;;12.10;7.90;;;9.90;99.90;;;;;;4976445;28;20301;-66
2023/03/23 12:08:25;;;;;;;10.70;8.20;;;9.90;99.90;;;;;;4975264;28;20674;-65
2023/03/23 12:11:06;;;;;;;9.27;8.10;;;9.90;99.90;;;;;;4977046;28;20188;-66
2023/03/23 12:13:52;;;;;;;9.07;7.00;;;9.90;99.90;;;;;;4975285;28;20185;-66
2023/03/23 12:16:53;;;;;;;7.67;6.77;;;9.80;99.90;;;;;;4976470;28;20161;-66
2023/03/23 12:19:29;;;;;;;7.03;6.33;;;9.70;99.90;;;;;;4976699;28;20193;-66
2023/03/23 12:22:28;;;;;;;9.90;6.03;;;9.70;99.90;;;;;;4979811;28;20200;-66
2023/03/23 12:25:22;;;;;;;8.10;6.27;;;9.70;99.90;;;;;;4996865;28;20576;-66
2023/03/23 12:28:32;;;;;;;5.77;5.03;;;9.70;99.90;;;;;;4997323;28;20216;-66
2023/03/23 12:31:19;;;;;;;5.43;4.70;;;9.70;99.90;;;;;;4986679;28;20189;-68
2023/03/23 12:34:06;;;;;;;6.23;4.50;;;9.70;99.90;;;;;;4997066;28;20176;-63
2023/03/23 12:37:02;;;;;;;5.10;4.60;;;9.60;99.90;;;;;;4997131;28;20264;-65
2023/03/23 12:39:48;;;;;;;6.27;4.80;;;9.60;99.90;;;;;;4996974;28;20161;-69
2023/03/23 12:42:37;;;;;;;9.50;4.67;;;9.70;99.90;;;;;;4996281;28;20200;-65
2023/03/23 12:45:23;;;;;;;8.43;5.30;;;9.80;99.90;;;;;;4998139;28;20161;-65
2023/03/23 12:47:59;;;;;;;7.03;5.50;;;9.90;99.90;;;;;;4999029;28;20203;-64
2023/03/23 12:50:58;;;;;;;6.43;5.40;;;10.00;99.90;;;;;;4999134;28;20664;-63
2023/03/23 12:54:02;;;;;;;7.03;5.57;;;10.10;99.90;;;;;;4999565;28;20192;-66
2023/03/23 12:56:48;;;;;;;8.80;5.63;;;10.30;99.90;;;;;;4996277;28;20183;-64
2023/03/23 12:59:31;;;;;;;5.40;4.77;;;10.30;99.90;;;;;;5114777;27;20548;-64
2023/03/23 13:02:06;;;;;;;8.80;6.20;;;10.30;99.90;;;;;;5114420;28;20183;-64
2023/03/23 13:04:44;;;;;;;6.78;5.55;;;10.20;99.90;;;;;;5112550;28;20263;-66
2023/03/23 13:07:30;;;;;;;6.90;6.20;;;10.00;99.90;;;;;;5114875;28;20563;-67
2023/03/23 13:10:15;;;;;;;7.35;5.80;;;10.10;99.90;;;;;;5112385;28;20692;-66